sensor_id;sensor_type;location;lat;lon;timestamp;P1;durP1;ratioP1;P2;durP2;ratioP2
58874;SDS011;44652;49.040;12.126;2023-01-05T13:53:49;7.57;;;1.83;;
58874;SDS011;44652;49.040;12.126;2023-01-05T13:56:18;5.97;;;1.13;;
58874;SDS011;44652;49.040;12.126;2023-01-05T13:58:50;6.97;;;1.60;;
58874;SDS011;44652;49.040;12.126;2023-01-05T14:04:01;7.80;;;1.75;;
58874;SDS011;44652;49.040;12.126;2023-01-05T14:06:33;10.25;;;1.75;;
58874;SDS011;44652;49.040;12.126;2023-01-05T14:09:06;9.30;;;2.35;;
58874;SDS011;44652;49.040;12.126;2023-01-05T14:17:51;9.25;;;2.45;;
58874;SDS011;44652;49.040;12.126;2023-01-05T14:20:38;8.48;;;2.63;;
58874;SDS011;44652;49.040;12.126;2023-01-05T14:25:58;9.05;;;2.33;;
58874;SDS011;44652;49.040;12.126;2023-01-05T14:33:45;10.45;;;2.50;;
58874;SDS011;44652;49.040;12.126;2023-01-05T14:36:38;10.50;;;1.88;;
58874;SDS011;44652;49.040;12.126;2023-01-05T14:41:37;10.38;;;2.03;;
58874;SDS011;44652;49.040;12.126;2023-01-05T14:44:06;9.70;;;2.40;;
58874;SDS011;44652;49.040;12.126;2023-01-05T14:46:47;13.20;;;3.10;;
58874;SDS011;44652;49.040;12.126;2023-01-05T14:52:12;10.57;;;2.47;;
58874;SDS011;44652;49.040;12.126;2023-01-05T14:57:20;10.15;;;2.83;;
58874;SDS011;44652;49.040;12.126;2023-01-05T15:00:00;13.77;;;1.90;;
58874;SDS011;44652;49.040;12.126;2023-01-05T15:02:42;8.68;;;1.92;;
58874;SDS011;44652;49.040;12.126;2023-01-05T15:05:18;9.38;;;2.00;;
58874;SDS011;44652;49.040;12.126;2023-01-05T15:16:39;9.15;;;1.92;;
58874;SDS011;44652;49.040;12.126;2023-01-05T15:39:46;14.40;;;3.67;;
58874;SDS011;44652;49.040;12.126;2023-01-05T15:42:24;12.30;;;2.40;;
58874;SDS011;44652;49.040;12.126;2023-01-05T15:44:54;13.00;;;2.30;;
58874;SDS011;44652;49.040;12.126;2023-01-05T15:47:23;12.52;;;2.92;;
58874;SDS011;44652;49.040;12.126;2023-01-05T15:49:56;13.70;;;3.65;;
58874;SDS011;44652;49.040;12.126;2023-01-05T15:52:32;15.93;;;3.42;;
58874;SDS011;44652;49.040;12.126;2023-01-05T15:55:10;17.20;;;3.85;;
58874;SDS011;44652;49.040;12.126;2023-01-05T15:57:39;12.48;;;3.13;;
58874;SDS011;44652;49.040;12.126;2023-01-05T16:00:20;15.37;;;3.27;;
58874;SDS011;44652;49.040;12.126;2023-01-05T16:02:47;15.77;;;3.38;;
58874;SDS011;44652;49.040;12.126;2023-01-05T16:05:18;11.70;;;3.20;;
58874;SDS011;44652;49.040;12.126;2023-01-05T16:07:51;18.58;;;3.42;;
58874;SDS011;44652;49.040;12.126;2023-01-05T16:10:21;16.48;;;3.28;;
58874;SDS011;44652;49.040;12.126;2023-01-05T16:12:54;16.67;;;3.80;;
58874;SDS011;44652;49.040;12.126;2023-01-05T16:15:25;12.05;;;2.50;;
58874;SDS011;44652;49.040;12.126;2023-01-05T16:17:55;15.38;;;3.55;;
58874;SDS011;44652;49.040;12.126;2023-01-05T16:20:23;15.93;;;4.47;;
58874;SDS011;44652;49.040;12.126;2023-01-05T16:23:00;11.77;;;3.75;;
58874;SDS011;44652;49.040;12.126;2023-01-05T16:25:56;16.88;;;4.25;;
58874;SDS011;44652;49.040;12.126;2023-01-05T16:28:23;13.85;;;3.40;;
58874;SDS011;44652;49.040;12.126;2023-01-05T16:30:52;18.02;;;3.85;;
58874;SDS011;44652;49.040;12.126;2023-01-05T16:33:27;12.05;;;3.92;;
58874;SDS011;44652;49.040;12.126;2023-01-05T16:38:47;11.90;;;3.30;;
58874;SDS011;44652;49.040;12.126;2023-01-05T16:41:24;13.45;;;3.15;;
58874;SDS011;44652;49.040;12.126;2023-01-05T16:43:58;15.73;;;3.53;;
58874;SDS011;44652;49.040;12.126;2023-01-05T16:46:30;15.57;;;3.33;;
58874;SDS011;44652;49.040;12.126;2023-01-05T16:48:58;13.05;;;2.95;;
58874;SDS011;44652;49.040;12.126;2023-01-05T16:59:40;15.75;;;2.95;;
58874;SDS011;44652;49.040;12.126;2023-01-05T17:02:33;12.85;;;2.90;;
58874;SDS011;44652;49.040;12.126;2023-01-05T17:04:56;14.30;;;2.75;;
58874;SDS011;44652;49.040;12.126;2023-01-05T17:07:23;13.55;;;2.42;;
58874;SDS011;44652;49.040;12.126;2023-01-05T17:09:50;10.70;;;2.70;;
58874;SDS011;44652;49.040;12.126;2023-01-05T17:12:17;13.98;;;2.80;;
58874;SDS011;44652;49.040;12.126;2023-01-05T17:14:45;14.65;;;4.03;;
58874;SDS011;44652;49.040;12.126;2023-01-05T17:17:11;16.23;;;3.88;;
58874;SDS011;44652;49.040;12.126;2023-01-05T17:19:39;16.65;;;4.03;;
58874;SDS011;44652;49.040;12.126;2023-01-05T17:22:06;13.50;;;4.03;;
58874;SDS011;44652;49.040;12.126;2023-01-05T17:24:38;17.27;;;3.15;;
58874;SDS011;44652;49.040;12.126;2023-01-05T17:27:05;14.15;;;2.90;;
58874;SDS011;44652;49.040;12.126;2023-01-05T17:29:31;16.70;;;3.88;;
58874;SDS011;44652;49.040;12.126;2023-01-05T17:31:58;14.55;;;3.08;;
58874;SDS011;44652;49.040;12.126;2023-01-05T17:34:25;17.52;;;3.58;;
58874;SDS011;44652;49.040;12.126;2023-01-05T17:36:53;12.23;;;3.15;;
58874;SDS011;44652;49.040;12.126;2023-01-05T17:39:21;13.43;;;2.83;;
58874;SDS011;44652;49.040;12.126;2023-01-05T17:41:48;13.63;;;4.00;;
58874;SDS011;44652;49.040;12.126;2023-01-05T17:44:15;14.25;;;3.42;;
58874;SDS011;44652;49.040;12.126;2023-01-05T17:46:43;12.20;;;3.10;;
58874;SDS011;44652;49.040;12.126;2023-01-05T17:51:38;23.02;;;7.55;;
58874;SDS011;44652;49.040;12.126;2023-01-05T17:54:05;25.08;;;6.90;;
58874;SDS011;44652;49.040;12.126;2023-01-05T17:56:32;27.33;;;8.02;;
58874;SDS011;44652;49.040;12.126;2023-01-05T17:59:03;19.38;;;4.50;;
58874;SDS011;44652;49.040;12.126;2023-01-05T18:01:30;19.13;;;4.75;;
58874;SDS011;44652;49.040;12.126;2023-01-05T18:03:59;16.38;;;3.42;;
58874;SDS011;44652;49.040;12.126;2023-01-05T18:06:26;13.65;;;4.25;;
58874;SDS011;44652;49.040;12.126;2023-01-05T18:08:53;18.65;;;3.80;;
58874;SDS011;44652;49.040;12.126;2023-01-05T18:11:20;12.75;;;3.03;;
58874;SDS011;44652;49.040;12.126;2023-01-05T18:13:46;14.20;;;3.70;;
58874;SDS011;44652;49.040;12.126;2023-01-05T18:16:14;19.50;;;4.32;;
58874;SDS011;44652;49.040;12.126;2023-01-05T18:18:41;18.95;;;4.60;;
58874;SDS011;44652;49.040;12.126;2023-01-05T18:21:08;14.50;;;3.75;;
58874;SDS011;44652;49.040;12.126;2023-01-05T18:23:35;14.13;;;3.70;;
58874;SDS011;44652;49.040;12.126;2023-01-05T18:26:05;12.40;;;3.42;;
58874;SDS011;44652;49.040;12.126;2023-01-05T18:28:34;16.80;;;4.50;;
58874;SDS011;44652;49.040;12.126;2023-01-05T18:31:07;20.90;;;5.32;;
58874;SDS011;44652;49.040;12.126;2023-01-05T18:33:38;16.67;;;4.82;;
58874;SDS011;44652;49.040;12.126;2023-01-05T18:36:08;14.50;;;4.38;;
58874;SDS011;44652;49.040;12.126;2023-01-05T18:38:39;19.52;;;4.80;;
58874;SDS011;44652;49.040;12.126;2023-01-05T18:41:07;14.63;;;4.03;;
58874;SDS011;44652;49.040;12.126;2023-01-05T18:43:34;14.90;;;3.53;;
58874;SDS011;44652;49.040;12.126;2023-01-05T18:46:01;10.07;;;2.65;;
58874;SDS011;44652;49.040;12.126;2023-01-05T18:48:28;13.25;;;3.35;;
58874;SDS011;44652;49.040;12.126;2023-01-05T18:50:55;13.77;;;3.08;;
58874;SDS011;44652;49.040;12.126;2023-01-05T18:53:22;12.40;;;3.30;;
58874;SDS011;44652;49.040;12.126;2023-01-05T18:55:49;14.05;;;3.28;;
58874;SDS011;44652;49.040;12.126;2023-01-05T18:58:15;14.98;;;4.35;;
58874;SDS011;44652;49.040;12.126;2023-01-05T19:00:43;14.90;;;3.90;;
58874;SDS011;44652;49.040;12.126;2023-01-05T19:03:10;20.55;;;4.05;;
58874;SDS011;44652;49.040;12.126;2023-01-05T19:05:41;19.05;;;4.30;;
58874;SDS011;44652;49.040;12.126;2023-01-05T19:08:09;15.10;;;4.13;;
58874;SDS011;44652;49.040;12.126;2023-01-05T19:10:38;16.98;;;5.13;;
58874;SDS011;44652;49.040;12.126;2023-01-05T19:13:05;15.73;;;4.10;;
58874;SDS011;44652;49.040;12.126;2023-01-05T19:15:32;18.98;;;5.97;;
58874;SDS011;44652;49.040;12.126;2023-01-05T19:18:00;16.05;;;5.28;;
58874;SDS011;44652;49.040;12.126;2023-01-05T19:20:27;18.88;;;4.25;;
58874;SDS011;44652;49.040;12.126;2023-01-05T19:22:53;18.00;;;4.30;;
58874;SDS011;44652;49.040;12.126;2023-01-05T19:25:20;18.45;;;3.92;;
58874;SDS011;44652;49.040;12.126;2023-01-05T19:27:47;12.95;;;3.33;;
58874;SDS011;44652;49.040;12.126;2023-01-05T19:30:13;17.33;;;3.90;;
58874;SDS011;44652;49.040;12.126;2023-01-05T19:32:42;16.50;;;3.28;;
58874;SDS011;44652;49.040;12.126;2023-01-05T19:35:09;16.38;;;2.85;;
58874;SDS011;44652;49.040;12.126;2023-01-05T19:37:36;14.20;;;3.88;;
58874;SDS011;44652;49.040;12.126;2023-01-05T19:40:08;14.00;;;3.05;;
58874;SDS011;44652;49.040;12.126;2023-01-05T19:42:35;14.25;;;3.15;;
58874;SDS011;44652;49.040;12.126;2023-01-05T19:45:02;16.20;;;3.78;;
58874;SDS011;44652;49.040;12.126;2023-01-05T19:47:29;13.85;;;3.50;;
58874;SDS011;44652;49.040;12.126;2023-01-05T19:49:56;14.90;;;3.60;;
58874;SDS011;44652;49.040;12.126;2023-01-05T19:52:23;14.68;;;3.67;;
58874;SDS011;44652;49.040;12.126;2023-01-05T19:54:54;16.90;;;3.60;;
58874;SDS011;44652;49.040;12.126;2023-01-05T19:57:21;14.68;;;3.78;;
58874;SDS011;44652;49.040;12.126;2023-01-05T19:59:48;18.20;;;4.45;;
58874;SDS011;44652;49.040;12.126;2023-01-05T20:02:16;13.35;;;3.78;;
58874;SDS011;44652;49.040;12.126;2023-01-05T20:04:44;17.05;;;4.00;;
58874;SDS011;44652;49.040;12.126;2023-01-05T20:09:38;17.25;;;3.95;;
58874;SDS011;44652;49.040;12.126;2023-01-05T20:12:06;15.68;;;3.60;;
58874;SDS011;44652;49.040;12.126;2023-01-05T20:14:40;15.07;;;4.72;;
58874;SDS011;44652;49.040;12.126;2023-01-05T20:17:09;20.77;;;4.87;;
58874;SDS011;44652;49.040;12.126;2023-01-05T20:19:37;16.77;;;5.75;;
58874;SDS011;44652;49.040;12.126;2023-01-05T20:22:05;22.02;;;6.70;;
58874;SDS011;44652;49.040;12.126;2023-01-05T20:24:34;21.77;;;5.43;;
58874;SDS011;44652;49.040;12.126;2023-01-05T20:29:30;36.83;;;18.08;;
58874;SDS011;44652;49.040;12.126;2023-01-05T20:32:02;20.13;;;9.90;;
58874;SDS011;44652;49.040;12.126;2023-01-05T20:34:32;16.67;;;6.03;;
58874;SDS011;44652;49.040;12.126;2023-01-05T20:37:02;17.15;;;3.90;;
58874;SDS011;44652;49.040;12.126;2023-01-05T20:39:30;13.20;;;3.13;;
58874;SDS011;44652;49.040;12.126;2023-01-05T20:41:57;15.23;;;3.53;;
58874;SDS011;44652;49.040;12.126;2023-01-05T20:44:31;16.70;;;4.03;;
58874;SDS011;44652;49.040;12.126;2023-01-05T20:47:00;14.80;;;2.90;;
58874;SDS011;44652;49.040;12.126;2023-01-05T20:49:28;13.77;;;3.13;;
58874;SDS011;44652;49.040;12.126;2023-01-05T20:51:55;13.82;;;3.13;;
58874;SDS011;44652;49.040;12.126;2023-01-05T20:54:23;14.27;;;3.30;;
58874;SDS011;44652;49.040;12.126;2023-01-05T20:56:50;16.35;;;3.72;;
58874;SDS011;44652;49.040;12.126;2023-01-05T20:59:24;17.05;;;3.55;;
58874;SDS011;44652;49.040;12.126;2023-01-05T21:01:58;16.70;;;3.65;;
58874;SDS011;44652;49.040;12.126;2023-01-05T21:04:26;16.45;;;3.72;;
58874;SDS011;44652;49.040;12.126;2023-01-05T21:06:53;14.80;;;3.83;;
58874;SDS011;44652;49.040;12.126;2023-01-05T21:09:20;15.25;;;3.63;;
58874;SDS011;44652;49.040;12.126;2023-01-05T21:11:48;16.65;;;4.63;;
58874;SDS011;44652;49.040;12.126;2023-01-05T21:14:15;11.98;;;3.58;;
58874;SDS011;44652;49.040;12.126;2023-01-05T21:16:44;15.00;;;4.07;;
58874;SDS011;44652;49.040;12.126;2023-01-05T21:19:13;16.73;;;4.85;;
58874;SDS011;44652;49.040;12.126;2023-01-05T21:21:43;14.13;;;5.43;;
58874;SDS011;44652;49.040;12.126;2023-01-05T21:24:12;14.32;;;5.20;;
58874;SDS011;44652;49.040;12.126;2023-01-05T21:26:40;17.15;;;6.03;;
58874;SDS011;44652;49.040;12.126;2023-01-05T21:29:08;16.08;;;6.03;;
58874;SDS011;44652;49.040;12.126;2023-01-05T21:31:37;17.52;;;6.63;;
58874;SDS011;44652;49.040;12.126;2023-01-05T21:34:03;15.80;;;6.43;;
58874;SDS011;44652;49.040;12.126;2023-01-05T21:36:31;20.25;;;8.18;;
58874;SDS011;44652;49.040;12.126;2023-01-05T21:41:32;25.90;;;11.30;;
58874;SDS011;44652;49.040;12.126;2023-01-05T21:44:19;24.48;;;11.10;;
58874;SDS011;44652;49.040;12.126;2023-01-05T21:46:47;24.15;;;10.27;;
58874;SDS011;44652;49.040;12.126;2023-01-05T21:49:15;25.67;;;9.77;;
58874;SDS011;44652;49.040;12.126;2023-01-05T21:51:42;28.13;;;10.60;;
58874;SDS011;44652;49.040;12.126;2023-01-05T21:54:28;24.90;;;9.00;;
58874;SDS011;44652;49.040;12.126;2023-01-05T21:57:13;23.05;;;10.02;;
58874;SDS011;44652;49.040;12.126;2023-01-05T21:59:40;18.33;;;8.90;;
58874;SDS011;44652;49.040;12.126;2023-01-05T22:02:08;17.42;;;7.95;;
58874;SDS011;44652;49.040;12.126;2023-01-05T22:04:36;13.90;;;6.80;;
58874;SDS011;44652;49.040;12.126;2023-01-05T22:07:02;18.70;;;7.57;;
58874;SDS011;44652;49.040;12.126;2023-01-05T22:09:35;21.73;;;6.85;;
58874;SDS011;44652;49.040;12.126;2023-01-05T22:12:03;26.02;;;6.95;;
58874;SDS011;44652;49.040;12.126;2023-01-05T22:14:35;14.40;;;6.30;;
58874;SDS011;44652;49.040;12.126;2023-01-05T22:17:03;20.20;;;7.15;;
58874;SDS011;44652;49.040;12.126;2023-01-05T22:19:30;23.60;;;7.45;;
58874;SDS011;44652;49.040;12.126;2023-01-05T22:21:57;17.45;;;6.70;;
58874;SDS011;44652;49.040;12.126;2023-01-05T22:24:24;16.63;;;6.28;;
58874;SDS011;44652;49.040;12.126;2023-01-05T22:26:51;18.20;;;7.00;;
58874;SDS011;44652;49.040;12.126;2023-01-05T22:29:17;16.80;;;4.50;;
58874;SDS011;44652;49.040;12.126;2023-01-05T22:31:44;22.77;;;4.65;;
58874;SDS011;44652;49.040;12.126;2023-01-05T22:34:11;24.67;;;8.27;;
58874;SDS011;44652;49.040;12.126;2023-01-05T22:36:37;23.30;;;8.98;;
58874;SDS011;44652;49.040;12.126;2023-01-05T22:39:04;27.90;;;10.50;;
58874;SDS011;44652;49.040;12.126;2023-01-05T22:41:31;25.77;;;9.43;;
58874;SDS011;44652;49.040;12.126;2023-01-05T22:43:58;27.05;;;9.20;;
58874;SDS011;44652;49.040;12.126;2023-01-05T22:46:27;32.78;;;10.65;;
58874;SDS011;44652;49.040;12.126;2023-01-05T22:48:55;40.25;;;12.57;;
58874;SDS011;44652;49.040;12.126;2023-01-05T22:51:24;46.25;;;17.38;;
58874;SDS011;44652;49.040;12.126;2023-01-05T22:53:53;28.75;;;9.20;;
58874;SDS011;44652;49.040;12.126;2023-01-05T22:56:21;26.35;;;9.73;;
58874;SDS011;44652;49.040;12.126;2023-01-05T22:58:49;19.65;;;7.38;;
58874;SDS011;44652;49.040;12.126;2023-01-05T23:01:23;19.75;;;6.47;;
58874;SDS011;44652;49.040;12.126;2023-01-05T23:03:55;17.65;;;4.68;;
58874;SDS011;44652;49.040;12.126;2023-01-05T23:06:23;14.80;;;4.30;;
58874;SDS011;44652;49.040;12.126;2023-01-05T23:08:51;18.00;;;4.35;;
58874;SDS011;44652;49.040;12.126;2023-01-05T23:11:20;18.92;;;4.47;;
58874;SDS011;44652;49.040;12.126;2023-01-05T23:13:47;16.65;;;4.72;;
58874;SDS011;44652;49.040;12.126;2023-01-05T23:16:15;21.75;;;7.18;;
58874;SDS011;44652;49.040;12.126;2023-01-05T23:18:42;18.40;;;7.13;;
58874;SDS011;44652;49.040;12.126;2023-01-05T23:21:10;19.90;;;6.63;;
58874;SDS011;44652;49.040;12.126;2023-01-05T23:23:38;18.90;;;7.03;;
58874;SDS011;44652;49.040;12.126;2023-01-05T23:26:06;17.45;;;6.35;;
58874;SDS011;44652;49.040;12.126;2023-01-05T23:28:34;14.73;;;6.10;;
58874;SDS011;44652;49.040;12.126;2023-01-05T23:31:01;19.70;;;6.00;;
58874;SDS011;44652;49.040;12.126;2023-01-05T23:33:28;19.88;;;7.22;;
58874;SDS011;44652;49.040;12.126;2023-01-05T23:35:57;17.65;;;5.55;;
